sensor_id;sensor_type;location;lat;lon;timestamp;temperature;humidity
46458;DHT22;32155;54.076;12.092;2023-12-14T00:02:04;4.30;99.90
46458;DHT22;32155;54.076;12.092;2023-12-14T00:04:30;4.30;99.90
46458;DHT22;32155;54.076;12.092;2023-12-14T00:06:55;4.30;99.90
46458;DHT22;32155;54.076;12.092;2023-12-14T00:09:26;4.20;99.90
46458;DHT22;32155;54.076;12.092;2023-12-14T00:11:51;4.30;99.90
46458;DHT22;32155;54.076;12.092;2023-12-14T00:14:17;4.30;99.90
46458;DHT22;32155;54.076;12.092;2023-12-14T00:16:45;4.20;99.90
46458;DHT22;32155;54.076;12.092;2023-12-14T00:19:14;4.20;99.90
46458;DHT22;32155;54.076;12.092;2023-12-14T00:21:40;4.20;99.90
46458;DHT22;32155;54.076;12.092;2023-12-14T00:24:06;4.10;99.90
46458;DHT22;32155;54.076;12.092;2023-12-14T00:26:31;4.10;99.90
46458;DHT22;32155;54.076;12.092;2023-12-14T00:28:59;4.10;99.90
46458;DHT22;32155;54.076;12.092;2023-12-14T00:31:25;4.00;99.90
46458;DHT22;32155;54.076;12.092;2023-12-14T00:33:50;4.00;99.90
46458;DHT22;32155;54.076;12.092;2023-12-14T00:36:19;4.00;99.90
46458;DHT22;32155;54.076;12.092;2023-12-14T00:38:45;4.00;99.90
46458;DHT22;32155;54.076;12.092;2023-12-14T00:41:12;4.00;99.90
46458;DHT22;32155;54.076;12.092;2023-12-14T00:43:38;4.10;99.90
46458;DHT22;32155;54.076;12.092;2023-12-14T00:46:04;4.10;99.90
46458;DHT22;32155;54.076;12.092;2023-12-14T00:48:31;4.00;99.90
46458;DHT22;32155;54.076;12.092;2023-12-14T00:50:59;4.10;99.90
46458;DHT22;32155;54.076;12.092;2023-12-14T00:53:25;4.10;99.90
46458;DHT22;32155;54.076;12.092;2023-12-14T00:55:50;4.10;99.90
46458;DHT22;32155;54.076;12.092;2023-12-14T00:58:16;4.00;99.90
46458;DHT22;32155;54.076;12.092;2023-12-14T01:00:41;4.00;99.90
46458;DHT22;32155;54.076;12.092;2023-12-14T01:03:07;4.20;99.90
46458;DHT22;32155;54.076;12.092;2023-12-14T01:05:33;4.20;99.90
46458;DHT22;32155;54.076;12.092;2023-12-14T01:08:03;4.10;99.90
46458;DHT22;32155;54.076;12.092;2023-12-14T01:10:31;4.10;99.90
46458;DHT22;32155;54.076;12.092;2023-12-14T01:12:58;4.10;99.90
46458;DHT22;32155;54.076;12.092;2023-12-14T01:15:23;4.10;99.90
46458;DHT22;32155;54.076;12.092;2023-12-14T01:17:48;4.10;99.90
46458;DHT22;32155;54.076;12.092;2023-12-14T01:20:14;4.20;99.90
46458;DHT22;32155;54.076;12.092;2023-12-14T01:22:39;4.20;99.90
46458;DHT22;32155;54.076;12.092;2023-12-14T01:25:05;4.20;99.90
46458;DHT22;32155;54.076;12.092;2023-12-14T01:27:33;4.10;99.90
46458;DHT22;32155;54.076;12.092;2023-12-14T01:29:58;4.10;99.90
46458;DHT22;32155;54.076;12.092;2023-12-14T01:32:24;4.20;99.90
46458;DHT22;32155;54.076;12.092;2023-12-14T01:34:49;4.10;99.90
46458;DHT22;32155;54.076;12.092;2023-12-14T01:37:15;4.10;99.90
46458;DHT22;32155;54.076;12.092;2023-12-14T01:39:40;4.20;99.90
46458;DHT22;32155;54.076;12.092;2023-12-14T01:42:08;4.20;99.90
46458;DHT22;32155;54.076;12.092;2023-12-14T01:44:36;4.30;99.90
46458;DHT22;32155;54.076;12.092;2023-12-14T01:47:01;4.20;99.90
46458;DHT22;32155;54.076;12.092;2023-12-14T01:49:27;4.20;99.90
46458;DHT22;32155;54.076;12.092;2023-12-14T01:51:52;4.20;99.90
46458;DHT22;32155;54.076;12.092;2023-12-14T01:54:18;4.20;99.90
46458;DHT22;32155;54.076;12.092;2023-12-14T01:56:43;4.10;99.90
46458;DHT22;32155;54.076;12.092;2023-12-14T01:59:09;4.20;99.90
46458;DHT22;32155;54.076;12.092;2023-12-14T02:01:44;4.10;99.90
46458;DHT22;32155;54.076;12.092;2023-12-14T02:04:10;4.10;99.90
46458;DHT22;32155;54.076;12.092;2023-12-14T02:06:36;4.10;99.90
46458;DHT22;32155;54.076;12.092;2023-12-14T02:09:02;4.10;99.90
46458;DHT22;32155;54.076;12.092;2023-12-14T02:11:27;4.10;99.90
46458;DHT22;32155;54.076;12.092;2023-12-14T02:13:53;4.10;99.90
46458;DHT22;32155;54.076;12.092;2023-12-14T02:16:18;4.10;99.90
46458;DHT22;32155;54.076;12.092;2023-12-14T02:18:46;4.00;99.90
46458;DHT22;32155;54.076;12.092;2023-12-14T02:21:14;4.10;99.90
46458;DHT22;32155;54.076;12.092;2023-12-14T02:23:45;4.10;99.90
46458;DHT22;32155;54.076;12.092;2023-12-14T02:26:13;4.10;99.90
46458;DHT22;32155;54.076;12.092;2023-12-14T02:28:39;4.10;99.90
46458;DHT22;32155;54.076;12.092;2023-12-14T02:31:08;4.10;99.90
46458;DHT22;32155;54.076;12.092;2023-12-14T02:33:33;4.10;99.90
46458;DHT22;32155;54.076;12.092;2023-12-14T02:35:59;4.10;99.90
46458;DHT22;32155;54.076;12.092;2023-12-14T02:38:25;4.10;99.90
46458;DHT22;32155;54.076;12.092;2023-12-14T02:40:50;4.10;99.90
46458;DHT22;32155;54.076;12.092;2023-12-14T02:43:18;4.20;99.90
46458;DHT22;32155;54.076;12.092;2023-12-14T02:45:44;4.20;99.90
46458;DHT22;32155;54.076;12.092;2023-12-14T02:48:09;4.10;99.90
46458;DHT22;32155;54.076;12.092;2023-12-14T02:50:37;4.10;99.90
46458;DHT22;32155;54.076;12.092;2023-12-14T02:53:06;4.20;99.90
46458;DHT22;32155;54.076;12.092;2023-12-14T02:55:32;4.20;99.90
46458;DHT22;32155;54.076;12.092;2023-12-14T02:57:57;4.10;99.90
46458;DHT22;32155;54.076;12.092;2023-12-14T03:00:23;4.10;99.90
46458;DHT22;32155;54.076;12.092;2023-12-14T03:02:48;4.20;99.90
46458;DHT22;32155;54.076;12.092;2023-12-14T03:05:14;4.20;99.90
46458;DHT22;32155;54.076;12.092;2023-12-14T03:07:39;4.20;99.90
46458;DHT22;32155;54.076;12.092;2023-12-14T03:10:07;4.20;99.90
46458;DHT22;32155;54.076;12.092;2023-12-14T03:12:36;4.20;99.90
46458;DHT22;32155;54.076;12.092;2023-12-14T03:15:04;4.30;99.90
46458;DHT22;32155;54.076;12.092;2023-12-14T03:17:29;4.20;99.90
46458;DHT22;32155;54.076;12.092;2023-12-14T03:19:58;4.30;99.90
46458;DHT22;32155;54.076;12.092;2023-12-14T03:22:23;4.30;99.90
46458;DHT22;32155;54.076;12.092;2023-12-14T03:24:49;4.30;99.90
46458;DHT22;32155;54.076;12.092;2023-12-14T03:27:14;4.40;99.90
46458;DHT22;32155;54.076;12.092;2023-12-14T03:29:40;4.40;99.90
46458;DHT22;32155;54.076;12.092;2023-12-14T03:32:05;4.30;99.90
46458;DHT22;32155;54.076;12.092;2023-12-14T03:34:31;4.30;99.90
46458;DHT22;32155;54.076;12.092;2023-12-14T03:36:59;4.30;99.90
46458;DHT22;32155;54.076;12.092;2023-12-14T03:39:24;4.30;99.90
46458;DHT22;32155;54.076;12.092;2023-12-14T03:41:50;4.30;99.90
46458;DHT22;32155;54.076;12.092;2023-12-14T03:44:15;4.30;99.90
46458;DHT22;32155;54.076;12.092;2023-12-14T03:49:29;4.30;99.90
46458;DHT22;32155;54.076;12.092;2023-12-14T03:51:57;4.30;99.90
46458;DHT22;32155;54.076;12.092;2023-12-14T03:54:23;4.40;99.90
46458;DHT22;32155;54.076;12.092;2023-12-14T03:56:48;4.30;99.90
46458;DHT22;32155;54.076;12.092;2023-12-14T03:59:14;4.30;99.90
46458;DHT22;32155;54.076;12.092;2023-12-14T04:01:39;4.30;99.90
46458;DHT22;32155;54.076;12.092;2023-12-14T04:04:08;4.40;99.90
46458;DHT22;32155;54.076;12.092;2023-12-14T04:06:34;4.30;99.90
46458;DHT22;32155;54.076;12.092;2023-12-14T04:08:59;4.40;99.90
46458;DHT22;32155;54.076;12.092;2023-12-14T04:11:25;4.30;99.90
46458;DHT22;32155;54.076;12.092;2023-12-14T04:13:50;4.30;99.90
46458;DHT22;32155;54.076;12.092;2023-12-14T04:16:24;4.30;99.90
46458;DHT22;32155;54.076;12.092;2023-12-14T04:18:52;4.30;99.90
46458;DHT22;32155;54.076;12.092;2023-12-14T04:21:17;4.30;99.90
46458;DHT22;32155;54.076;12.092;2023-12-14T04:23:43;4.30;99.90
46458;DHT22;32155;54.076;12.092;2023-12-14T04:26:11;4.30;99.90
46458;DHT22;32155;54.076;12.092;2023-12-14T04:28:36;4.30;99.90
46458;DHT22;32155;54.076;12.092;2023-12-14T04:31:02;4.30;99.90
46458;DHT22;32155;54.076;12.092;2023-12-14T04:33:27;4.30;99.90
46458;DHT22;32155;54.076;12.092;2023-12-14T04:35:53;4.20;99.90
46458;DHT22;32155;54.076;12.092;2023-12-14T04:38:18;4.30;99.90
46458;DHT22;32155;54.076;12.092;2023-12-14T04:40:44;4.30;99.90
46458;DHT22;32155;54.076;12.092;2023-12-14T04:43:09;4.30;99.90
46458;DHT22;32155;54.076;12.092;2023-12-14T04:45:35;4.30;99.90
46458;DHT22;32155;54.076;12.092;2023-12-14T04:48:03;4.30;99.90
46458;DHT22;32155;54.076;12.092;2023-12-14T04:50:30;4.30;99.90
46458;DHT22;32155;54.076;12.092;2023-12-14T04:52:56;4.30;99.90
46458;DHT22;32155;54.076;12.092;2023-12-14T04:55:21;4.30;99.90
46458;DHT22;32155;54.076;12.092;2023-12-14T04:57:49;4.30;99.90
46458;DHT22;32155;54.076;12.092;2023-12-14T05:00:15;4.20;99.90
46458;DHT22;32155;54.076;12.092;2023-12-14T05:02:40;4.30;99.90
46458;DHT22;32155;54.076;12.092;2023-12-14T05:05:06;4.30;99.90
46458;DHT22;32155;54.076;12.092;2023-12-14T05:07:32;4.30;99.90
46458;DHT22;32155;54.076;12.092;2023-12-14T05:09:59;4.40;99.90
46458;DHT22;32155;54.076;12.092;2023-12-14T05:12:25;4.40;99.90
46458;DHT22;32155;54.076;12.092;2023-12-14T05:14:52;4.30;99.90
46458;DHT22;32155;54.076;12.092;2023-12-14T05:17:18;4.40;99.90
46458;DHT22;32155;54.076;12.092;2023-12-14T05:19:43;4.40;99.90
46458;DHT22;32155;54.076;12.092;2023-12-14T05:22:09;4.40;99.90
46458;DHT22;32155;54.076;12.092;2023-12-14T05:24:37;4.40;99.90
46458;DHT22;32155;54.076;12.092;2023-12-14T05:27:03;4.40;99.90
46458;DHT22;32155;54.076;12.092;2023-12-14T05:29:29;4.40;99.90
46458;DHT22;32155;54.076;12.092;2023-12-14T05:32:01;4.40;99.90
46458;DHT22;32155;54.076;12.092;2023-12-14T05:34:26;4.30;99.90
46458;DHT22;32155;54.076;12.092;2023-12-14T05:36:52;4.30;99.90
46458;DHT22;32155;54.076;12.092;2023-12-14T05:39:17;4.30;99.90
46458;DHT22;32155;54.076;12.092;2023-12-14T05:41:45;4.30;99.90
46458;DHT22;32155;54.076;12.092;2023-12-14T05:44:11;4.40;99.90
46458;DHT22;32155;54.076;12.092;2023-12-14T05:46:36;4.30;99.90
46458;DHT22;32155;54.076;12.092;2023-12-14T05:49:02;4.30;99.90
46458;DHT22;32155;54.076;12.092;2023-12-14T05:51:28;4.30;99.90
46458;DHT22;32155;54.076;12.092;2023-12-14T05:53:54;4.40;99.90
46458;DHT22;32155;54.076;12.092;2023-12-14T05:56:22;4.30;99.90
46458;DHT22;32155;54.076;12.092;2023-12-14T05:58:48;4.40;99.90
46458;DHT22;32155;54.076;12.092;2023-12-14T06:01:16;4.30;99.90
46458;DHT22;32155;54.076;12.092;2023-12-14T06:03:41;4.30;99.90
46458;DHT22;32155;54.076;12.092;2023-12-14T06:06:09;4.30;99.90
46458;DHT22;32155;54.076;12.092;2023-12-14T06:08:38;4.30;99.90
46458;DHT22;32155;54.076;12.092;2023-12-14T06:11:06;4.20;99.90
46458;DHT22;32155;54.076;12.092;2023-12-14T06:13:32;4.30;99.90
46458;DHT22;32155;54.076;12.092;2023-12-14T06:16:00;4.30;99.90
46458;DHT22;32155;54.076;12.092;2023-12-14T06:18:25;4.20;99.90
46458;DHT22;32155;54.076;12.092;2023-12-14T06:20:53;4.30;99.90
46458;DHT22;32155;54.076;12.092;2023-12-14T06:23:19;4.20;99.90
46458;DHT22;32155;54.076;12.092;2023-12-14T06:25:44;4.20;99.90
46458;DHT22;32155;54.076;12.092;2023-12-14T06:28:10;4.20;99.90
46458;DHT22;32155;54.076;12.092;2023-12-14T06:30:35;4.20;99.90
46458;DHT22;32155;54.076;12.092;2023-12-14T06:33:03;4.20;99.90
46458;DHT22;32155;54.076;12.092;2023-12-14T06:35:29;4.20;99.90
46458;DHT22;32155;54.076;12.092;2023-12-14T06:37:57;4.20;99.90
46458;DHT22;32155;54.076;12.092;2023-12-14T06:40:22;4.20;99.90
46458;DHT22;32155;54.076;12.092;2023-12-14T06:42:48;4.20;99.90
46458;DHT22;32155;54.076;12.092;2023-12-14T06:45:15;4.10;99.90
46458;DHT22;32155;54.076;12.092;2023-12-14T06:47:43;4.10;99.90
46458;DHT22;32155;54.076;12.092;2023-12-14T06:50:09;4.10;99.90
46458;DHT22;32155;54.076;12.092;2023-12-14T06:52:35;4.10;99.90
46458;DHT22;32155;54.076;12.092;2023-12-14T06:55:01;4.10;99.90
46458;DHT22;32155;54.076;12.092;2023-12-14T06:57:26;4.20;99.90
46458;DHT22;32155;54.076;12.092;2023-12-14T06:59:54;4.10;99.90
46458;DHT22;32155;54.076;12.092;2023-12-14T07:02:20;4.10;99.90
46458;DHT22;32155;54.076;12.092;2023-12-14T07:04:47;4.10;99.90
46458;DHT22;32155;54.076;12.092;2023-12-14T07:07:13;4.10;99.90
46458;DHT22;32155;54.076;12.092;2023-12-14T07:09:38;4.20;99.90
46458;DHT22;32155;54.076;12.092;2023-12-14T07:12:04;4.20;99.90
46458;DHT22;32155;54.076;12.092;2023-12-14T07:14:30;4.10;99.90
46458;DHT22;32155;54.076;12.092;2023-12-14T07:16:55;4.20;99.90
46458;DHT22;32155;54.076;12.092;2023-12-14T07:19:21;4.20;99.90
46458;DHT22;32155;54.076;12.092;2023-12-14T07:21:46;4.10;99.90
46458;DHT22;32155;54.076;12.092;2023-12-14T07:24:20;4.10;99.90
46458;DHT22;32155;54.076;12.092;2023-12-14T07:26:46;4.10;99.90
46458;DHT22;32155;54.076;12.092;2023-12-14T07:29:15;4.20;99.90
46458;DHT22;32155;54.076;12.092;2023-12-14T07:31:40;4.10;99.90
46458;DHT22;32155;54.076;12.092;2023-12-14T07:36:35;4.10;99.90
46458;DHT22;32155;54.076;12.092;2023-12-14T07:39:01;4.10;99.90
46458;DHT22;32155;54.076;12.092;2023-12-14T07:41:30;4.10;99.90
46458;DHT22;32155;54.076;12.092;2023-12-14T07:43:57;4.20;99.90
46458;DHT22;32155;54.076;12.092;2023-12-14T07:46:25;4.20;99.90
46458;DHT22;32155;54.076;12.092;2023-12-14T07:48:51;4.30;99.90
46458;DHT22;32155;54.076;12.092;2023-12-14T07:51:16;4.30;99.90
46458;DHT22;32155;54.076;12.092;2023-12-14T07:53:42;4.30;99.90
46458;DHT22;32155;54.076;12.092;2023-12-14T07:56:08;4.30;99.90
46458;DHT22;32155;54.076;12.092;2023-12-14T07:58:34;4.30;99.90
46458;DHT22;32155;54.076;12.092;2023-12-14T08:00:59;4.30;99.90
46458;DHT22;32155;54.076;12.092;2023-12-14T08:03:25;4.30;99.90
46458;DHT22;32155;54.076;12.092;2023-12-14T08:05:50;4.40;99.90
46458;DHT22;32155;54.076;12.092;2023-12-14T08:08:16;4.40;99.90
46458;DHT22;32155;54.076;12.092;2023-12-14T08:10:42;4.40;99.90
46458;DHT22;32155;54.076;12.092;2023-12-14T08:13:08;4.50;99.90
46458;DHT22;32155;54.076;12.092;2023-12-14T08:15:36;4.50;99.90
46458;DHT22;32155;54.076;12.092;2023-12-14T08:18:04;4.50;99.90
46458;DHT22;32155;54.076;12.092;2023-12-14T08:20:29;4.40;99.90
46458;DHT22;32155;54.076;12.092;2023-12-14T08:22:57;4.40;99.90
46458;DHT22;32155;54.076;12.092;2023-12-14T08:25:23;4.40;99.90
46458;DHT22;32155;54.076;12.092;2023-12-14T08:27:49;4.40;99.90
46458;DHT22;32155;54.076;12.092;2023-12-14T08:30:15;4.50;99.90
46458;DHT22;32155;54.076;12.092;2023-12-14T08:32:41;4.50;99.90
46458;DHT22;32155;54.076;12.092;2023-12-14T08:35:08;4.50;99.90
46458;DHT22;32155;54.076;12.092;2023-12-14T08:37:35;4.50;99.90
46458;DHT22;32155;54.076;12.092;2023-12-14T08:40:00;4.50;99.90
46458;DHT22;32155;54.076;12.092;2023-12-14T08:42:28;4.50;99.90
46458;DHT22;32155;54.076;12.092;2023-12-14T08:44:54;4.50;99.90
46458;DHT22;32155;54.076;12.092;2023-12-14T08:47:22;4.50;99.90
46458;DHT22;32155;54.076;12.092;2023-12-14T08:49:55;4.60;99.90
46458;DHT22;32155;54.076;12.092;2023-12-14T08:52:20;4.60;99.90
46458;DHT22;32155;54.076;12.092;2023-12-14T08:54:46;4.60;99.90
46458;DHT22;32155;54.076;12.092;2023-12-14T08:57:11;4.60;99.90
46458;DHT22;32155;54.076;12.092;2023-12-14T08:59:39;4.60;99.90
46458;DHT22;32155;54.076;12.092;2023-12-14T09:02:05;4.70;99.90
46458;DHT22;32155;54.076;12.092;2023-12-14T09:04:31;4.70;99.90
46458;DHT22;32155;54.076;12.092;2023-12-14T09:06:57;4.60;99.90
46458;DHT22;32155;54.076;12.092;2023-12-14T09:09:25;4.50;99.90
46458;DHT22;32155;54.076;12.092;2023-12-14T09:11:50;4.50;99.90
46458;DHT22;32155;54.076;12.092;2023-12-14T09:14:18;4.50;99.90
46458;DHT22;32155;54.076;12.092;2023-12-14T09:16:44;4.50;99.90
46458;DHT22;32155;54.076;12.092;2023-12-14T09:19:09;4.50;99.90
46458;DHT22;32155;54.076;12.092;2023-12-14T09:21:37;4.50;99.90
46458;DHT22;32155;54.076;12.092;2023-12-14T09:24:03;4.50;99.90
46458;DHT22;32155;54.076;12.092;2023-12-14T09:26:28;4.50;99.90
46458;DHT22;32155;54.076;12.092;2023-12-14T09:28:54;4.50;99.90
46458;DHT22;32155;54.076;12.092;2023-12-14T09:31:19;4.50;99.90
46458;DHT22;32155;54.076;12.092;2023-12-14T09:33:47;4.50;99.90
46458;DHT22;32155;54.076;12.092;2023-12-14T09:36:13;4.50;99.90
46458;DHT22;32155;54.076;12.092;2023-12-14T09:38:38;4.50;99.90
46458;DHT22;32155;54.076;12.092;2023-12-14T09:41:06;4.40;99.90
46458;DHT22;32155;54.076;12.092;2023-12-14T09:43:33;4.50;99.90
46458;DHT22;32155;54.076;12.092;2023-12-14T09:45:58;4.60;99.90
46458;DHT22;32155;54.076;12.092;2023-12-14T09:48:25;4.60;99.90
46458;DHT22;32155;54.076;12.092;2023-12-14T09:50:50;4.60;99.90
46458;DHT22;32155;54.076;12.092;2023-12-14T09:53:17;4.60;99.90
46458;DHT22;32155;54.076;12.092;2023-12-14T09:55:43;4.60;99.90
46458;DHT22;32155;54.076;12.092;2023-12-14T09:58:09;4.60;99.90
46458;DHT22;32155;54.076;12.092;2023-12-14T10:00:39;4.60;99.90
46458;DHT22;32155;54.076;12.092;2023-12-14T10:03:24;4.60;99.90
46458;DHT22;32155;54.076;12.092;2023-12-14T10:05:51;4.70;99.90
46458;DHT22;32155;54.076;12.092;2023-12-14T10:08:18;4.70;99.90
46458;DHT22;32155;54.076;12.092;2023-12-14T10:10:44;4.70;99.90
46458;DHT22;32155;54.076;12.092;2023-12-14T10:13:10;4.70;99.90
46458;DHT22;32155;54.076;12.092;2023-12-14T10:15:43;4.70;99.90
46458;DHT22;32155;54.076;12.092;2023-12-14T10:18:08;4.60;99.90
46458;DHT22;32155;54.076;12.092;2023-12-14T10:20:36;4.60;99.90
46458;DHT22;32155;54.076;12.092;2023-12-14T10:23:06;4.80;99.90
46458;DHT22;32155;54.076;12.092;2023-12-14T10:25:32;4.70;99.90
46458;DHT22;32155;54.076;12.092;2023-12-14T10:27:59;4.70;99.90
46458;DHT22;32155;54.076;12.092;2023-12-14T10:30:25;4.70;99.90
46458;DHT22;32155;54.076;12.092;2023-12-14T10:32:53;4.80;99.90
46458;DHT22;32155;54.076;12.092;2023-12-14T10:35:19;4.90;99.90
46458;DHT22;32155;54.076;12.092;2023-12-14T10:37:45;4.90;99.90
46458;DHT22;32155;54.076;12.092;2023-12-14T10:40:11;4.80;99.90
46458;DHT22;32155;54.076;12.092;2023-12-14T10:42:39;4.70;99.90
46458;DHT22;32155;54.076;12.092;2023-12-14T10:45:09;4.70;99.90
46458;DHT22;32155;54.076;12.092;2023-12-14T10:47:39;4.80;99.90
46458;DHT22;32155;54.076;12.092;2023-12-14T10:50:06;4.80;99.90
46458;DHT22;32155;54.076;12.092;2023-12-14T10:52:32;4.70;99.90
46458;DHT22;32155;54.076;12.092;2023-12-14T10:55:02;4.80;99.90
46458;DHT22;32155;54.076;12.092;2023-12-14T10:57:30;4.80;99.90
46458;DHT22;32155;54.076;12.092;2023-12-14T11:00:00;4.80;99.90
46458;DHT22;32155;54.076;12.092;2023-12-14T11:02:26;4.80;99.90
46458;DHT22;32155;54.076;12.092;2023-12-14T11:04:55;4.90;99.90
46458;DHT22;32155;54.076;12.092;2023-12-14T11:10:06;4.90;99.90
46458;DHT22;32155;54.076;12.092;2023-12-14T11:12:34;5.00;99.90
46458;DHT22;32155;54.076;12.092;2023-12-14T11:15:00;4.90;99.90
46458;DHT22;32155;54.076;12.092;2023-12-14T11:17:25;4.80;99.90
46458;DHT22;32155;54.076;12.092;2023-12-14T11:19:53;4.90;99.90
46458;DHT22;32155;54.076;12.092;2023-12-14T11:22:23;4.90;99.90
46458;DHT22;32155;54.076;12.092;2023-12-14T11:24:54;4.90;99.90
46458;DHT22;32155;54.076;12.092;2023-12-14T11:27:26;4.90;99.90
46458;DHT22;32155;54.076;12.092;2023-12-14T11:29:52;5.00;99.90
46458;DHT22;32155;54.076;12.092;2023-12-14T11:32:20;5.00;99.90
46458;DHT22;32155;54.076;12.092;2023-12-14T11:34:46;5.10;99.90
46458;DHT22;32155;54.076;12.092;2023-12-14T11:37:13;5.00;99.90
46458;DHT22;32155;54.076;12.092;2023-12-14T11:39:41;5.10;99.90
46458;DHT22;32155;54.076;12.092;2023-12-14T11:42:09;5.10;99.90
46458;DHT22;32155;54.076;12.092;2023-12-14T11:44:37;5.10;99.90
46458;DHT22;32155;54.076;12.092;2023-12-14T11:47:02;5.10;99.90
46458;DHT22;32155;54.076;12.092;2023-12-14T11:49:29;5.10;99.90
46458;DHT22;32155;54.076;12.092;2023-12-14T11:51:54;5.20;99.90
46458;DHT22;32155;54.076;12.092;2023-12-14T11:54:20;5.20;99.90
46458;DHT22;32155;54.076;12.092;2023-12-14T11:56:46;5.10;99.90
46458;DHT22;32155;54.076;12.092;2023-12-14T11:59:12;5.10;99.90
46458;DHT22;32155;54.076;12.092;2023-12-14T12:01:48;5.20;99.90
46458;DHT22;32155;54.076;12.092;2023-12-14T12:04:18;5.20;99.90
46458;DHT22;32155;54.076;12.092;2023-12-14T12:06:44;5.20;99.90
46458;DHT22;32155;54.076;12.092;2023-12-14T12:09:11;5.20;99.90
46458;DHT22;32155;54.076;12.092;2023-12-14T12:11:38;5.20;99.90
46458;DHT22;32155;54.076;12.092;2023-12-14T12:14:06;5.10;99.90
46458;DHT22;32155;54.076;12.092;2023-12-14T12:16:31;5.10;99.90
46458;DHT22;32155;54.076;12.092;2023-12-14T12:18:57;5.10;99.90
46458;DHT22;32155;54.076;12.092;2023-12-14T12:21:23;5.10;99.90
46458;DHT22;32155;54.076;12.092;2023-12-14T12:23:48;5.10;99.90
46458;DHT22;32155;54.076;12.092;2023-12-14T12:26:14;5.20;99.90
46458;DHT22;32155;54.076;12.092;2023-12-14T12:28:39;5.10;99.90
46458;DHT22;32155;54.076;12.092;2023-12-14T12:31:05;5.20;99.90
46458;DHT22;32155;54.076;12.092;2023-12-14T12:33:31;5.20;99.90
46458;DHT22;32155;54.076;12.092;2023-12-14T12:36:02;5.20;99.90
46458;DHT22;32155;54.076;12.092;2023-12-14T12:38:28;5.20;99.90
46458;DHT22;32155;54.076;12.092;2023-12-14T12:40:53;5.20;99.90
46458;DHT22;32155;54.076;12.092;2023-12-14T12:43:21;5.20;99.90
46458;DHT22;32155;54.076;12.092;2023-12-14T12:45:46;5.30;99.90
46458;DHT22;32155;54.076;12.092;2023-12-14T12:48:12;5.30;99.90
46458;DHT22;32155;54.076;12.092;2023-12-14T12:50:39;5.20;99.90
46458;DHT22;32155;54.076;12.092;2023-12-14T12:53:05;5.20;99.90
46458;DHT22;32155;54.076;12.092;2023-12-14T12:55:30;5.10;99.90
46458;DHT22;32155;54.076;12.092;2023-12-14T12:57:59;5.10;99.90
46458;DHT22;32155;54.076;12.092;2023-12-14T13:00:30;5.10;99.90
46458;DHT22;32155;54.076;12.092;2023-12-14T13:03:00;5.10;99.90
46458;DHT22;32155;54.076;12.092;2023-12-14T13:05:27;5.10;99.90
46458;DHT22;32155;54.076;12.092;2023-12-14T13:07:55;5.20;99.90
46458;DHT22;32155;54.076;12.092;2023-12-14T13:10:25;5.20;99.90
46458;DHT22;32155;54.076;12.092;2023-12-14T13:12:53;5.20;99.90
46458;DHT22;32155;54.076;12.092;2023-12-14T13:15:22;5.10;99.90
46458;DHT22;32155;54.076;12.092;2023-12-14T13:17:49;5.00;99.90
46458;DHT22;32155;54.076;12.092;2023-12-14T13:20:17;5.10;99.90
46458;DHT22;32155;54.076;12.092;2023-12-14T13:22:43;5.10;99.90
46458;DHT22;32155;54.076;12.092;2023-12-14T13:25:09;5.10;99.90
46458;DHT22;32155;54.076;12.092;2023-12-14T13:27:35;5.10;99.90
46458;DHT22;32155;54.076;12.092;2023-12-14T13:30:04;5.10;99.90
46458;DHT22;32155;54.076;12.092;2023-12-14T13:32:32;5.10;99.90
46458;DHT22;32155;54.076;12.092;2023-12-14T13:34:57;5.10;99.90
46458;DHT22;32155;54.076;12.092;2023-12-14T13:37:25;5.00;99.90
46458;DHT22;32155;54.076;12.092;2023-12-14T13:39:52;5.00;99.90
46458;DHT22;32155;54.076;12.092;2023-12-14T13:42:18;5.00;99.90
46458;DHT22;32155;54.076;12.092;2023-12-14T13:44:44;4.90;99.90
46458;DHT22;32155;54.076;12.092;2023-12-14T13:47:12;5.00;99.90
46458;DHT22;32155;54.076;12.092;2023-12-14T13:49:38;4.90;99.90
46458;DHT22;32155;54.076;12.092;2023-12-14T13:52:03;4.90;99.90
46458;DHT22;32155;54.076;12.092;2023-12-14T13:54:41;4.90;99.90
46458;DHT22;32155;54.076;12.092;2023-12-14T13:57:09;4.90;99.90
46458;DHT22;32155;54.076;12.092;2023-12-14T13:59:34;4.90;99.90
46458;DHT22;32155;54.076;12.092;2023-12-14T14:02:02;4.80;99.90
46458;DHT22;32155;54.076;12.092;2023-12-14T14:04:28;4.80;99.90
46458;DHT22;32155;54.076;12.092;2023-12-14T14:06:53;4.70;99.90
46458;DHT22;32155;54.076;12.092;2023-12-14T14:09:22;4.70;99.90
46458;DHT22;32155;54.076;12.092;2023-12-14T14:11:47;4.50;99.90
46458;DHT22;32155;54.076;12.092;2023-12-14T14:14:14;4.50;99.90
46458;DHT22;32155;54.076;12.092;2023-12-14T14:16:40;4.50;99.90
46458;DHT22;32155;54.076;12.092;2023-12-14T14:19:05;4.50;99.90
46458;DHT22;32155;54.076;12.092;2023-12-14T14:21:33;4.50;99.90
46458;DHT22;32155;54.076;12.092;2023-12-14T14:23:59;4.50;99.90
46458;DHT22;32155;54.076;12.092;2023-12-14T14:26:24;4.40;99.90
46458;DHT22;32155;54.076;12.092;2023-12-14T14:28:50;4.30;99.90
46458;DHT22;32155;54.076;12.092;2023-12-14T14:31:15;4.30;99.90
46458;DHT22;32155;54.076;12.092;2023-12-14T14:33:45;4.30;99.90
46458;DHT22;32155;54.076;12.092;2023-12-14T14:36:14;4.30;99.90
46458;DHT22;32155;54.076;12.092;2023-12-14T14:38:42;4.30;99.90
46458;DHT22;32155;54.076;12.092;2023-12-14T14:41:08;4.30;99.90
46458;DHT22;32155;54.076;12.092;2023-12-14T14:43:34;4.30;99.90
46458;DHT22;32155;54.076;12.092;2023-12-14T14:46:01;4.30;99.90
46458;DHT22;32155;54.076;12.092;2023-12-14T14:48:29;4.30;99.90
46458;DHT22;32155;54.076;12.092;2023-12-14T14:50:55;4.30;99.90
46458;DHT22;32155;54.076;12.092;2023-12-14T14:53:20;4.30;99.90
46458;DHT22;32155;54.076;12.092;2023-12-14T14:55:47;4.20;99.90
46458;DHT22;32155;54.076;12.092;2023-12-14T14:58:30;4.20;99.90
46458;DHT22;32155;54.076;12.092;2023-12-14T15:00:58;4.20;99.90
46458;DHT22;32155;54.076;12.092;2023-12-14T15:03:24;4.20;99.90
46458;DHT22;32155;54.076;12.092;2023-12-14T15:05:49;4.20;99.90
46458;DHT22;32155;54.076;12.092;2023-12-14T15:08:15;4.10;99.90
46458;DHT22;32155;54.076;12.092;2023-12-14T15:10:41;4.10;99.90
46458;DHT22;32155;54.076;12.092;2023-12-14T15:13:08;4.20;99.90
46458;DHT22;32155;54.076;12.092;2023-12-14T15:15:44;4.10;99.90
46458;DHT22;32155;54.076;12.092;2023-12-14T15:18:10;4.10;99.90
46458;DHT22;32155;54.076;12.092;2023-12-14T15:20:35;4.10;99.90
46458;DHT22;32155;54.076;12.092;2023-12-14T15:23:02;4.10;99.90
46458;DHT22;32155;54.076;12.092;2023-12-14T15:25:30;4.10;99.90
46458;DHT22;32155;54.076;12.092;2023-12-14T15:27:57;4.10;99.90
46458;DHT22;32155;54.076;12.092;2023-12-14T15:30:22;4.10;99.90
46458;DHT22;32155;54.076;12.092;2023-12-14T15:32:49;4.10;99.90
46458;DHT22;32155;54.076;12.092;2023-12-14T15:35:14;4.10;99.90